Terminal Aerodrome Forecast
Issued by NWS Cleveland, OH

Home | Current Version | Previous Version | Graphics & Text | Print | Product List | Glossary On
Versions: 1 2 3 4 5 6 7 8 9 10 11 12 13 14 15 16 17 18 19 20 21 22 23
000
FTUS41 KCLE 282300
TAFMFD
TAF
KMFD 282338Z 2900/2924 34006KT P6SM SCT040 BKN060
     FM290300 31004KT P6SM SCT060
     FM291100 28004KT P6SM BKN100
     FM291400 28006KT P6SM BKN035
     FM292000 28008KT P6SM VCSH BKN050=

USA.gov is the U.S. government's official web portal to all federal, state and local government web resources and services.